createdAt,value
2019-03-11T00:00:07.452Z,3.40
2019-03-11T00:02:36.338Z,3.40
2019-03-11T00:05:05.415Z,3.50
2019-03-11T00:07:34.244Z,3.50
2019-03-11T00:10:03.140Z,3.50
2019-03-11T00:12:32.048Z,3.50
2019-03-11T00:15:00.939Z,3.40
2019-03-11T00:17:29.833Z,3.40
2019-03-11T00:19:58.745Z,3.50
2019-03-11T00:22:27.567Z,3.40
2019-03-11T00:24:56.357Z,3.50
2019-03-11T00:27:25.169Z,3.50
2019-03-11T00:29:54.038Z,3.50
2019-03-11T00:32:22.843Z,3.60
2019-03-11T00:34:51.727Z,3.50
2019-03-11T00:37:20.607Z,3.40
2019-03-11T00:39:49.438Z,3.30
2019-03-11T00:42:18.326Z,3.30
2019-03-11T00:44:47.168Z,3.20
2019-03-11T00:47:15.988Z,3.20
2019-03-11T00:49:44.805Z,3.30
2019-03-11T00:52:13.654Z,3.40
2019-03-11T00:54:42.511Z,3.40
2019-03-11T00:57:11.558Z,3.40
2019-03-11T00:59:40.357Z,3.40
2019-03-11T01:02:09.346Z,3.40
2019-03-11T01:04:38.204Z,3.30
2019-03-11T01:07:07.140Z,3.30
2019-03-11T01:09:36.161Z,3.30
2019-03-11T01:12:05.166Z,3.30
2019-03-11T01:14:35.851Z,3.30
2019-03-11T01:17:04.692Z,3.30
2019-03-11T01:19:33.569Z,3.30
2019-03-11T01:22:02.639Z,3.30
2019-03-11T01:24:31.511Z,3.30
2019-03-11T01:27:00.328Z,3.40
2019-03-11T01:29:29.217Z,3.50
2019-03-11T01:31:58.010Z,3.60
2019-03-11T01:34:27.195Z,3.50
2019-03-11T01:36:56.503Z,3.60
2019-03-11T01:39:25.425Z,3.60
2019-03-11T01:41:54.331Z,3.60
2019-03-11T01:44:23.360Z,3.60
2019-03-11T01:46:52.470Z,3.60
2019-03-11T01:49:23.779Z,3.50
2019-03-11T01:51:51.901Z,3.60
2019-03-11T01:54:20.874Z,3.70
2019-03-11T01:56:49.701Z,3.70
2019-03-11T01:59:18.637Z,3.60
2019-03-11T02:01:48.593Z,3.50
2019-03-11T02:04:17.613Z,3.50
2019-03-11T02:06:46.431Z,3.50
2019-03-11T02:09:15.575Z,3.40
2019-03-11T02:11:44.510Z,3.40
2019-03-11T02:14:13.624Z,3.40
2019-03-11T02:16:42.658Z,3.30
2019-03-11T02:19:11.656Z,3.30
2019-03-11T02:21:40.726Z,3.40
2019-03-11T02:24:09.798Z,3.30
2019-03-11T02:26:38.684Z,3.30
2019-03-11T02:29:07.524Z,3.30
2019-03-11T02:31:36.606Z,3.40
2019-03-11T02:34:05.630Z,3.40
2019-03-11T02:36:34.557Z,3.40
2019-03-11T02:39:03.914Z,3.40
2019-03-11T02:41:32.726Z,3.40
2019-03-11T02:44:02.129Z,3.30
2019-03-11T02:46:31.012Z,3.30
2019-03-11T02:48:59.852Z,3.20
2019-03-11T02:51:28.657Z,3.20
2019-03-11T02:53:57.481Z,3.10
2019-03-11T02:56:26.293Z,3.10
2019-03-11T02:58:55.080Z,3.00
2019-03-11T03:01:41.453Z,3.20
2019-03-11T03:04:14.985Z,3.10
2019-03-11T03:06:43.932Z,3.00
2019-03-11T03:09:14.388Z,3.20
2019-03-11T03:11:43.392Z,3.30
2019-03-11T03:14:12.206Z,3.30
2019-03-11T03:16:41.022Z,3.10
2019-03-11T03:19:09.839Z,3.10
2019-03-11T03:21:38.693Z,3.10
2019-03-11T03:24:07.593Z,3.00
2019-03-11T03:26:36.491Z,3.00
2019-03-11T03:29:05.470Z,2.90
2019-03-11T03:31:34.289Z,2.80
2019-03-11T03:34:03.320Z,2.70
2019-03-11T03:36:33.284Z,2.70
2019-03-11T03:39:02.178Z,2.80
2019-03-11T03:41:31.077Z,2.80
2019-03-11T03:44:00.094Z,2.80
2019-03-11T03:46:28.984Z,2.80
2019-03-11T03:48:57.858Z,2.90
2019-03-11T03:51:26.689Z,3.00
2019-03-11T03:53:55.589Z,2.90
2019-03-11T03:56:24.451Z,2.90
2019-03-11T03:58:53.321Z,2.90
2019-03-11T04:01:22.226Z,2.80
2019-03-11T04:03:51.161Z,2.90
2019-03-11T04:06:19.961Z,2.80
2019-03-11T04:08:48.844Z,2.80
2019-03-11T04:11:17.750Z,2.90
2019-03-11T04:13:46.548Z,2.90
2019-03-11T04:16:15.499Z,2.80
2019-03-11T04:18:57.054Z,2.90
2019-03-11T04:21:26.053Z,2.90
2019-03-11T04:23:54.840Z,3.00
2019-03-11T04:26:28.789Z,2.80
2019-03-11T04:28:57.854Z,2.80
2019-03-11T04:31:26.746Z,2.90
2019-03-11T04:33:55.809Z,2.90
2019-03-11T04:36:24.599Z,2.90
2019-03-11T04:38:53.467Z,3.00
2019-03-11T04:41:22.280Z,3.00
2019-03-11T04:43:51.100Z,3.00
2019-03-11T04:46:19.989Z,3.00
2019-03-11T04:48:48.939Z,3.00
2019-03-11T04:51:17.812Z,3.00
2019-03-11T04:53:46.625Z,2.90
2019-03-11T04:56:15.526Z,2.90
2019-03-11T04:58:44.389Z,3.00
2019-03-11T05:01:13.349Z,3.00
2019-03-11T05:03:42.145Z,3.00
2019-03-11T05:06:11.005Z,3.00
2019-03-11T05:08:39.971Z,3.10
2019-03-11T05:11:08.835Z,3.10
2019-03-11T05:13:37.615Z,3.20
2019-03-11T05:16:06.564Z,3.30
2019-03-11T05:18:35.432Z,3.20
2019-03-11T05:21:04.314Z,3.20
2019-03-11T05:23:33.116Z,3.30
2019-03-11T05:26:01.924Z,3.30
2019-03-11T05:28:30.748Z,3.30
2019-03-11T05:30:59.637Z,3.30
2019-03-11T05:33:28.508Z,3.30
2019-03-11T05:35:57.347Z,3.20
2019-03-11T05:38:26.265Z,3.10
2019-03-11T05:40:55.077Z,3.10
2019-03-11T05:43:23.921Z,3.00
2019-03-11T05:45:52.735Z,3.00
2019-03-11T05:48:21.567Z,3.10
2019-03-11T05:50:50.441Z,3.10
2019-03-11T05:53:19.284Z,3.20
2019-03-11T05:55:48.292Z,3.40
2019-03-11T05:58:17.148Z,3.40
2019-03-11T06:00:45.981Z,3.50
2019-03-11T06:03:14.865Z,3.80
2019-03-11T06:05:43.659Z,3.40
2019-03-11T06:08:21.159Z,3.30
2019-03-11T06:10:50.041Z,2.90
2019-03-11T06:13:18.948Z,2.70
2019-03-11T06:15:47.802Z,2.60
2019-03-11T06:18:35.480Z,2.30
2019-03-11T06:21:22.001Z,2.20
2019-03-11T06:23:50.822Z,2.30
2019-03-11T06:26:19.823Z,2.40
2019-03-11T06:28:48.782Z,2.50
2019-03-11T06:31:20.496Z,2.50
2019-03-11T06:33:49.508Z,2.60
2019-03-11T06:36:18.603Z,2.60
2019-03-11T06:38:47.505Z,2.70
2019-03-11T06:41:16.359Z,2.70
2019-03-11T06:43:45.374Z,2.80
2019-03-11T06:46:14.284Z,2.80
2019-03-11T06:48:43.213Z,2.80
2019-03-11T06:51:12.776Z,2.90
2019-03-11T06:53:41.650Z,2.80
2019-03-11T06:56:10.582Z,2.80
2019-03-11T06:58:39.527Z,2.70
2019-03-11T07:01:09.161Z,2.70
2019-03-11T07:03:38.321Z,2.70
2019-03-11T07:06:07.664Z,2.80
2019-03-11T07:08:37.137Z,2.90
2019-03-11T07:11:06.141Z,2.90
2019-03-11T07:13:34.942Z,3.10
2019-03-11T07:16:04.011Z,3.20
2019-03-11T07:18:33.005Z,3.30
2019-03-11T07:21:01.970Z,3.40
2019-03-11T07:23:30.922Z,3.40
2019-03-11T07:25:59.852Z,3.40
2019-03-11T07:28:28.798Z,3.40
2019-03-11T07:30:57.733Z,3.50
2019-03-11T07:33:26.568Z,3.60
2019-03-11T07:35:55.568Z,3.60
2019-03-11T07:38:24.591Z,3.60
2019-03-11T07:40:53.571Z,3.70
2019-03-11T07:43:22.501Z,3.70
2019-03-11T07:45:51.345Z,3.70
2019-03-11T07:48:20.238Z,3.90
2019-03-11T07:50:49.370Z,3.80
2019-03-11T07:53:18.395Z,3.80
2019-03-11T07:55:47.381Z,4.00
2019-03-11T07:58:16.382Z,4.10
2019-03-11T08:00:53.487Z,4.10
2019-03-11T08:03:15.964Z,4.10
2019-03-11T08:05:44.900Z,4.20
2019-03-11T08:08:13.705Z,4.20
2019-03-11T08:10:42.590Z,4.10
2019-03-11T08:13:11.414Z,4.20
2019-03-11T08:15:40.340Z,4.20
2019-03-11T08:18:10.850Z,4.20
2019-03-11T08:20:39.886Z,4.10
2019-03-11T08:23:08.731Z,4.10
2019-03-11T08:25:37.574Z,4.10
2019-03-11T08:28:06.469Z,4.00
2019-03-11T08:30:35.417Z,4.10
2019-03-11T08:33:04.265Z,4.20
2019-03-11T08:35:33.192Z,4.20
2019-03-11T08:38:04.904Z,4.40
2019-03-11T08:40:32.785Z,4.50
2019-03-11T08:43:01.669Z,4.60
2019-03-11T08:45:30.643Z,4.70
2019-03-11T08:47:59.759Z,4.70
2019-03-11T08:50:28.658Z,4.70
2019-03-11T08:52:57.549Z,4.70
2019-03-11T08:55:26.407Z,4.80
2019-03-11T08:57:55.228Z,4.90
2019-03-11T09:00:24.291Z,5.00
2019-03-11T09:02:53.294Z,5.10
2019-03-11T09:05:24.332Z,5.10
2019-03-11T09:07:52.835Z,5.20
2019-03-11T09:10:21.878Z,5.20
2019-03-11T09:12:50.768Z,5.20
2019-03-11T09:15:19.732Z,5.30
2019-03-11T09:17:48.800Z,5.60
2019-03-11T09:20:17.982Z,5.80
2019-03-11T09:22:46.921Z,5.90
2019-03-11T09:25:15.837Z,5.70
2019-03-11T09:27:44.834Z,5.50
2019-03-11T09:32:43.396Z,5.70
2019-03-11T09:35:12.384Z,5.70
2019-03-11T09:37:41.348Z,5.60
2019-03-11T09:40:11.642Z,5.60
2019-03-11T09:42:40.634Z,5.70
2019-03-11T09:45:10.672Z,5.80
2019-03-11T09:47:39.463Z,6.10
2019-03-11T09:50:09.245Z,6.30
2019-03-11T09:52:38.181Z,6.70
2019-03-11T09:55:08.531Z,6.70
2019-03-11T09:57:37.342Z,6.90
2019-03-11T10:00:10.050Z,6.80
2019-03-11T10:02:38.908Z,6.50
2019-03-11T10:05:08.268Z,6.30
2019-03-11T10:07:37.141Z,6.20
2019-03-11T10:10:07.337Z,5.90
2019-03-11T10:12:36.166Z,5.90
2019-03-11T10:15:05.634Z,6.00
2019-03-11T10:17:34.463Z,6.00
2019-03-11T10:20:03.438Z,6.00
2019-03-11T10:22:32.229Z,6.20
2019-03-11T10:25:01.106Z,6.10
2019-03-11T10:27:30.010Z,6.10
2019-03-11T10:29:58.877Z,6.30
2019-03-11T10:32:27.670Z,6.40
2019-03-11T10:34:56.552Z,6.20
2019-03-11T10:37:25.409Z,6.20
2019-03-11T10:39:54.241Z,6.10
2019-03-11T10:42:23.124Z,6.20
2019-03-11T10:44:56.286Z,6.40
2019-03-11T10:47:25.136Z,6.50
2019-03-11T10:49:54.089Z,6.50
2019-03-11T10:52:22.990Z,6.90
2019-03-11T10:54:51.824Z,7.10
2019-03-11T10:57:20.796Z,7.20
2019-03-11T10:59:49.596Z,7.00
2019-03-11T11:02:18.628Z,6.80
2019-03-11T11:04:48.135Z,6.90
2019-03-11T11:07:17.077Z,6.90
2019-03-11T11:14:42.767Z,7.40
2019-03-11T11:17:11.595Z,7.20
2019-03-11T11:19:40.509Z,7.20
2019-03-11T11:22:09.397Z,7.10
2019-03-11T11:24:38.185Z,6.90
2019-03-11T11:27:07.046Z,6.90
2019-03-11T11:29:35.863Z,6.80
2019-03-11T11:32:04.893Z,6.60
2019-03-11T11:34:33.776Z,6.70
2019-03-11T11:37:02.674Z,6.70
2019-03-11T11:39:31.462Z,7.00
2019-03-11T11:42:00.336Z,7.20
2019-03-11T11:44:29.128Z,7.40
2019-03-11T11:46:57.925Z,7.60
2019-03-11T11:49:26.757Z,7.50
2019-03-11T11:51:55.713Z,7.80
2019-03-11T11:58:56.121Z,8.20
2019-03-11T12:02:03.347Z,8.20
2019-03-11T12:04:20.589Z,8.20
2019-03-11T12:07:30.199Z,8.10
2019-03-11T12:10:20.627Z,7.90
2019-03-11T12:12:49.507Z,7.60
2019-03-11T12:15:18.449Z,7.30
2019-03-11T12:17:47.431Z,7.10
2019-03-11T12:20:18.045Z,7.10
2019-03-11T12:22:47.068Z,7.00
2019-03-11T12:25:16.586Z,7.00
2019-03-11T12:27:53.536Z,7.00
2019-03-11T12:30:18.433Z,6.90
2019-03-11T12:32:47.569Z,6.80
2019-03-11T12:35:16.538Z,6.60
2019-03-11T12:37:45.624Z,6.60
2019-03-11T12:40:14.933Z,6.70
2019-03-11T12:42:43.802Z,6.70
2019-03-11T12:45:13.398Z,6.90
2019-03-11T12:47:42.383Z,6.80
2019-03-11T12:50:14.794Z,6.90
2019-03-11T12:52:43.909Z,7.00
2019-03-11T12:55:12.805Z,7.00
2019-03-11T12:57:41.705Z,7.60
2019-03-11T13:00:12.690Z,7.60
2019-03-11T13:02:41.528Z,7.50
2019-03-11T13:05:11.105Z,7.10
2019-03-11T13:07:39.896Z,6.80
2019-03-11T13:10:10.259Z,6.50
2019-03-11T13:12:39.064Z,6.50
2019-03-11T13:15:08.859Z,6.50
2019-03-11T13:17:37.747Z,6.70
2019-03-11T13:20:08.959Z,6.70
2019-03-11T13:22:37.785Z,6.70
2019-03-11T13:25:06.995Z,6.70
2019-03-11T13:27:54.097Z,6.90
2019-03-11T13:30:35.119Z,7.20
2019-03-11T13:33:16.018Z,7.40
2019-03-11T13:35:56.887Z,7.60
2019-03-11T13:38:37.460Z,7.80
2019-03-11T13:41:18.418Z,7.80
2019-03-11T13:43:59.700Z,7.30
2019-03-11T13:46:40.390Z,7.40
2019-03-11T13:49:20.892Z,7.30
2019-03-11T13:52:01.620Z,7.20
2019-03-11T13:54:42.321Z,7.10
2019-03-11T13:57:22.983Z,7.20
2019-03-11T14:00:03.583Z,7.10
2019-03-11T14:02:44.484Z,7.30
2019-03-11T14:05:13.539Z,7.50
2019-03-11T14:08:01.588Z,7.50
2019-03-11T14:10:49.621Z,7.50
2019-03-11T14:13:37.686Z,7.50
2019-03-11T14:16:25.789Z,7.00
2019-03-11T14:19:13.927Z,7.10
2019-03-11T14:22:02.045Z,6.90
2019-03-11T14:24:50.134Z,7.00
2019-03-11T14:27:38.265Z,6.80
2019-03-11T14:30:26.391Z,6.70
2019-03-11T14:33:14.437Z,6.90
2019-03-11T14:36:02.591Z,7.10
2019-03-11T14:38:50.773Z,7.30
2019-03-11T14:41:38.898Z,7.20
2019-03-11T14:44:26.935Z,7.10
2019-03-11T14:46:55.969Z,7.00
2019-03-11T14:49:44.037Z,6.80
2019-03-11T14:52:32.194Z,6.80
2019-03-11T14:55:20.425Z,6.90
2019-03-11T14:58:08.466Z,6.80
2019-03-11T15:00:49.573Z,6.80
2019-03-11T15:03:30.395Z,6.80
2019-03-11T15:06:11.709Z,6.70
2019-03-11T15:08:52.737Z,6.80
2019-03-11T15:11:33.855Z,6.80
2019-03-11T15:14:14.568Z,6.80
2019-03-11T15:19:37.571Z,6.80
2019-03-11T15:22:18.410Z,6.60
2019-03-11T15:24:58.933Z,6.50
2019-03-11T15:27:39.658Z,6.40
2019-03-11T15:30:20.515Z,6.60
2019-03-11T15:33:01.660Z,6.50
2019-03-11T15:35:42.297Z,6.40
2019-03-11T15:38:23.648Z,6.30
2019-03-11T15:41:04.211Z,6.10
2019-03-11T15:43:44.726Z,6.10
2019-03-11T15:46:25.481Z,6.00
2019-03-11T15:49:06.461Z,6.10
2019-03-11T15:51:46.972Z,6.10
2019-03-11T15:54:15.923Z,5.90
2019-03-11T15:57:04.176Z,5.80
2019-03-11T15:59:33.208Z,5.80
2019-03-11T16:02:14.019Z,5.50
2019-03-11T16:04:54.854Z,5.40
2019-03-11T16:07:35.886Z,5.30
2019-03-11T16:10:17.480Z,5.10
2019-03-11T16:12:58.542Z,5.10
2019-03-11T16:15:39.432Z,5.20
2019-03-11T16:18:20.032Z,5.00
2019-03-11T16:21:00.548Z,4.70
2019-03-11T16:23:41.341Z,4.50
2019-03-11T16:29:04.520Z,4.30
2019-03-11T16:31:45.553Z,4.30
2019-03-11T16:34:27.056Z,4.30
2019-03-11T16:37:08.433Z,4.30
2019-03-11T16:39:49.361Z,4.40
2019-03-11T16:42:30.195Z,4.30
2019-03-11T16:45:11.181Z,4.40
2019-03-11T16:47:52.446Z,4.50
2019-03-11T16:50:33.841Z,4.50
2019-03-11T16:53:14.553Z,4.50
2019-03-11T16:55:55.126Z,4.40
2019-03-11T16:58:35.911Z,4.50
2019-03-11T17:01:16.548Z,4.50
2019-03-11T17:03:57.302Z,4.60
2019-03-11T17:06:38.097Z,4.50
2019-03-11T17:09:08.912Z,4.50
2019-03-11T17:11:57.014Z,4.60
2019-03-11T17:14:45.153Z,4.60
2019-03-11T17:17:33.278Z,4.70
2019-03-11T17:20:21.400Z,4.50
2019-03-11T17:23:09.504Z,4.50
2019-03-11T17:25:57.635Z,4.30
2019-03-11T17:28:26.527Z,4.30
2019-03-11T17:31:14.671Z,4.20
2019-03-11T17:34:02.804Z,4.20
2019-03-11T17:36:31.753Z,4.20
2019-03-11T17:39:19.904Z,4.10
2019-03-11T17:42:08.125Z,4.20
2019-03-11T17:44:56.412Z,4.20
2019-03-11T17:47:44.586Z,4.20
2019-03-11T17:50:32.617Z,4.20
2019-03-11T17:53:01.477Z,4.20
2019-03-11T17:55:49.697Z,4.10
2019-03-11T17:58:38.097Z,4.20
2019-03-11T18:01:26.369Z,4.20
2019-03-11T18:04:07.726Z,4.20
2019-03-11T18:06:48.193Z,4.20
2019-03-11T18:09:30.894Z,4.20
2019-03-11T18:12:11.695Z,4.20
2019-03-11T18:14:52.571Z,4.20
2019-03-11T18:17:33.447Z,4.20
2019-03-11T18:20:14.450Z,4.20
2019-03-11T18:22:55.119Z,4.30
2019-03-11T18:25:36.082Z,4.30
2019-03-11T18:28:17.001Z,4.30
2019-03-11T18:30:58.032Z,4.30
2019-03-11T18:36:21.906Z,4.40
2019-03-11T18:39:02.388Z,4.30
2019-03-11T18:41:44.063Z,4.30
2019-03-11T18:44:25.519Z,4.40
2019-03-11T18:47:05.905Z,4.40
2019-03-11T18:52:28.824Z,4.40
2019-03-11T18:55:10.047Z,4.40
2019-03-11T18:57:50.997Z,4.40
2019-03-11T19:00:32.184Z,4.30
2019-03-11T19:03:13.151Z,4.40
2019-03-11T19:08:21.602Z,4.30
2019-03-11T19:10:50.570Z,4.20
2019-03-11T19:13:38.642Z,4.20
2019-03-11T19:16:26.670Z,4.20
2019-03-11T19:19:15.133Z,4.10
2019-03-11T19:22:03.284Z,4.10
2019-03-11T19:24:51.439Z,4.20
2019-03-11T19:27:20.452Z,4.10
2019-03-11T19:30:10.974Z,4.20
2019-03-11T19:32:59.046Z,4.10
2019-03-11T19:35:47.139Z,4.00
2019-03-11T19:38:35.198Z,3.90
2019-03-11T19:41:23.531Z,3.80
2019-03-11T19:44:11.834Z,3.60
2019-03-11T19:47:00.105Z,3.70
2019-03-11T19:49:48.384Z,3.60
2019-03-11T19:52:37.414Z,3.50
2019-03-11T19:55:25.870Z,3.40
2019-03-11T19:58:14.134Z,3.30
2019-03-11T20:01:02.538Z,3.20
2019-03-11T20:03:50.677Z,3.10
2019-03-11T20:06:38.812Z,3.10
2019-03-11T20:09:27.054Z,3.00
2019-03-11T20:12:15.269Z,3.00
2019-03-11T20:15:03.570Z,2.90
2019-03-11T20:17:51.722Z,2.90
2019-03-11T20:20:39.932Z,2.90
2019-03-11T20:23:28.155Z,2.90
2019-03-11T20:26:18.516Z,2.90
2019-03-11T20:29:06.442Z,3.00
2019-03-11T20:31:56.050Z,3.00
2019-03-11T20:34:45.553Z,3.00
2019-03-11T20:37:33.939Z,3.20
2019-03-11T20:40:22.148Z,3.20
2019-03-11T20:43:11.296Z,3.20
2019-03-11T20:46:01.578Z,3.20
2019-03-11T20:48:49.993Z,3.20
2019-03-11T20:51:38.239Z,3.20
2019-03-11T20:54:26.590Z,3.20
2019-03-11T20:56:55.648Z,3.20
2019-03-11T20:59:44.030Z,3.40
2019-03-11T21:02:32.333Z,3.40
2019-03-11T21:05:21.923Z,3.40
2019-03-11T21:08:06.140Z,3.50
2019-03-11T21:10:35.405Z,3.70
2019-03-11T21:13:24.068Z,3.60
2019-03-11T21:16:12.356Z,3.60
2019-03-11T21:19:00.625Z,3.70
2019-03-11T21:21:48.841Z,3.80
2019-03-11T21:24:38.119Z,3.70
2019-03-11T21:27:27.039Z,3.70
2019-03-11T21:30:16.242Z,3.80
2019-03-11T21:33:04.462Z,3.90
2019-03-11T21:35:52.699Z,3.90
2019-03-11T21:38:40.939Z,3.90
2019-03-11T21:41:29.383Z,3.90
2019-03-11T21:44:17.632Z,4.00
2019-03-11T21:47:06.209Z,4.10
2019-03-11T21:49:54.302Z,4.20
2019-03-11T21:52:42.470Z,4.20
2019-03-11T21:55:30.830Z,4.10
2019-03-11T21:58:18.997Z,4.10
2019-03-11T22:01:07.206Z,4.20
2019-03-11T22:03:55.339Z,4.20
2019-03-11T22:06:43.521Z,4.20
2019-03-11T22:09:24.214Z,4.20
2019-03-11T22:14:47.374Z,4.10
2019-03-11T22:17:28.246Z,4.30
2019-03-11T22:20:09.588Z,4.30
2019-03-11T22:22:50.986Z,4.30
2019-03-11T22:25:32.288Z,4.20
2019-03-11T22:28:13.383Z,4.20
2019-03-11T22:33:36.170Z,4.30
2019-03-11T22:36:16.816Z,4.30
2019-03-11T22:38:57.513Z,4.30
2019-03-11T22:44:20.714Z,4.20
2019-03-11T22:47:01.311Z,4.20
2019-03-11T22:49:42.304Z,4.10
2019-03-11T22:52:23.718Z,4.10
2019-03-11T22:55:04.604Z,4.10
2019-03-11T22:57:46.019Z,4.10
2019-03-11T23:00:28.940Z,4.20
2019-03-11T23:03:10.247Z,4.10
2019-03-11T23:05:57.707Z,4.10
2019-03-11T23:08:34.327Z,4.00
2019-03-11T23:11:15.638Z,4.10
2019-03-11T23:13:56.566Z,4.00
2019-03-11T23:16:37.374Z,4.00
2019-03-11T23:19:18.148Z,4.10
2019-03-11T23:21:59.481Z,4.10
2019-03-11T23:24:40.089Z,4.10
2019-03-11T23:27:21.391Z,4.10
2019-03-11T23:30:02.066Z,4.10
2019-03-11T23:32:42.792Z,4.10
2019-03-11T23:35:23.718Z,4.10
2019-03-11T23:38:04.507Z,4.10
2019-03-11T23:40:45.209Z,4.10
2019-03-11T23:43:25.897Z,4.00
2019-03-11T23:46:06.694Z,4.10
2019-03-11T23:48:47.648Z,4.10
2019-03-11T23:51:28.922Z,4.10
2019-03-11T23:54:10.280Z,4.10
2019-03-11T23:56:51.155Z,4.10
2019-03-11T23:59:31.916Z,4.10
